Time;durP1;ratioP1;P1;durP2;ratioP2;P2;SDS_P1;SDS_P2;PMS_P1;PMS_P2;Temp;Humidity;BMP_temperature;BMP_pressure;BME280_temperature;BME280_humidity;BME280_pressure;Samples;Min_cycle;Max_cycle;Signal;HPM_P1;HPM_P2
2021/03/21 00:02:05;;;;;;;3.95;1.88;;;;;;;;;;5071815;28;20044;-59
2021/03/21 00:04:31;;;;;;;;;;;;;;;;;;5085906;28;20074;-58
2021/03/21 00:06:59;;;;;;;4.75;1.90;;;;;;;;;;5071398;28;19916;-60
2021/03/21 00:09:25;;;;;;;5.40;2.13;;;;;;;;;;5082211;28;20092;-61
2021/03/21 00:11:51;;;;;;;4.50;1.70;;;;;;;;;;5081067;28;20040;-66
2021/03/21 00:14:17;;;;;;;3.88;1.83;;;;;;;;;;5086345;28;20040;-60
2021/03/21 00:16:43;;;;;;;7.72;1.73;;;;;;;;;;5082082;28;20036;-59
2021/03/21 00:19:09;;;;;;;3.28;1.50;;;;;;;;;;5101685;28;20039;-61
2021/03/21 00:21:36;;;;;;;3.70;1.67;;;;;;;;;;5101442;28;20039;-60
2021/03/21 00:24:03;;;;;;;5.38;1.50;;;;;;;;;;5085751;28;20032;-59
2021/03/21 00:26:29;;;;;;;3.08;1.50;;;;;;;;;;5080380;28;20093;-60
2021/03/21 00:28:56;;;;;;;2.70;1.25;;;;;;;;;;5078977;28;20032;-61
2021/03/21 00:31:23;;;;;;;5.07;1.38;;;;;;;;;;5081876;28;20101;-60
2021/03/21 00:33:49;;;;;;;3.03;1.40;;;;;;;;;;5084042;28;20035;-60
2021/03/21 00:36:16;;;;;;;1.50;1.00;;;;;;;;;;5066341;28;20121;-60
2021/03/21 00:38:43;;;;;;;2.35;0.95;;;;;;;;;;5071008;28;20044;-59
2021/03/21 00:41:11;;;;;;;4.60;1.10;;;;;;;;;;5080102;28;20032;-59
2021/03/21 00:43:37;;;;;;;4.15;1.98;;;;;;;;;;5087805;28;20047;-61
2021/03/21 00:46:03;;;;;;;1.73;0.90;;;;;;;;;;5101393;28;20046;-60
2021/03/21 00:48:31;;;;;;;1.52;0.95;;;;;;;;;;5060364;28;20033;-60
2021/03/21 00:50:57;;;;;;;1.60;0.93;;;;;;;;;;5080523;28;20047;-60
2021/03/21 00:53:23;;;;;;;1.73;0.90;;;;;;;;;;5077562;28;20028;-59
2021/03/21 00:55:51;;;;;;;2.40;1.27;;;;;;;;;;5061178;28;20056;-59
2021/03/21 00:58:18;;;;;;;2.90;1.00;;;;;;;;;;5057721;28;20033;-60
2021/03/21 01:00:45;;;;;;;1.42;0.80;;;;;;;;;;5077188;28;20025;-60
2021/03/21 01:03:11;;;;;;;1.90;0.80;;;;;;;;;;5075774;28;20037;-59
2021/03/21 01:05:39;;;;;;;3.15;0.80;;;;;;;;;;5078500;28;20051;-59
2021/03/21 01:08:06;;;;;;;7.53;1.13;;;;;;;;;;5061736;28;20113;-60
2021/03/21 01:10:34;;;;;;;0.80;0.57;;;;;;;;;;5059993;28;20040;-59
2021/03/21 01:13:01;;;;;;;1.55;0.80;;;;;;;;;;5065113;28;20118;-59
2021/03/21 01:15:29;;;;;;;2.63;0.88;;;;;;;;;;5060095;28;20040;-60
2021/03/21 01:17:57;;;;;;;1.55;0.65;;;;;;;;;;5077916;28;20040;-58
2021/03/21 01:20:24;;;;;;;4.82;0.90;;;;;;;;;;5058276;28;20052;-58
2021/03/21 01:22:50;;;;;;;1.67;0.70;;;;;;;;;;5077024;28;20532;-58
2021/03/21 01:25:18;;;;;;;1.70;0.70;;;;;;;;;;5088896;28;20057;-59
2021/03/21 01:27:44;;;;;;;1.05;0.70;;;;;;;;;;5102275;28;20050;-59
2021/03/21 01:30:12;;;;;;;1.60;0.90;;;;;;;;;;5081067;28;20044;-59
2021/03/21 01:32:39;;;;;;;1.38;0.93;;;;;;;;;;5061049;28;20042;-59
2021/03/21 01:35:06;;;;;;;2.10;1.00;;;;;;;;;;5061639;28;20067;-59
2021/03/21 01:37:32;;;;;;;1.77;0.88;;;;;;;;;;5081103;28;20048;-59
2021/03/21 01:39:58;;;;;;;3.13;1.00;;;;;;;;;;5074247;28;20051;-58
2021/03/21 01:42:25;;;;;;;2.72;0.80;;;;;;;;;;5062689;28;20036;-59
2021/03/21 01:44:53;;;;;;;0.88;0.88;;;;;;;;;;5066169;28;20049;-58
2021/03/21 01:47:27;;;;;;;1.23;1.00;;;;;;;;;;5082738;28;20036;-58
2021/03/21 01:49:54;;;;;;;1.95;1.10;;;;;;;;;;5083493;28;20032;-59
2021/03/21 01:52:26;;;;;;;1.92;1.00;;;;;;;;;;5080073;28;20036;-61
2021/03/21 01:54:53;;;;;;;2.55;1.20;;;;;;;;;;5086913;28;20036;-58
2021/03/21 01:57:19;;;;;;;4.35;1.17;;;;;;;;;;5086147;28;20045;-59
2021/03/21 01:59:45;;;;;;;6.03;1.40;;;;;;;;;;5069497;28;20061;-58
2021/03/21 02:02:11;;;;;;;4.50;1.70;;;;;;;;;;5063315;28;20037;-59
2021/03/21 02:04:37;;;;;;;4.07;1.58;;;;;;;;;;5074766;28;20051;-59
2021/03/21 02:07:14;;;;;;;3.00;1.60;;;;;;;;;;5079656;28;20052;-60
2021/03/21 02:09:42;;;;;;;4.00;1.27;;;;;;;;;;5085685;28;20067;-60
2021/03/21 02:12:15;;;;;;;3.88;1.60;;;;;;;;;;5096950;28;20056;-60
2021/03/21 02:14:45;;;;;;;2.92;1.50;;;;;;;;;;5083659;28;20059;-61
2021/03/21 02:17:17;;;;;;;2.88;1.38;;;;;;;;;;5079259;28;20039;-61
2021/03/21 02:19:56;;;;;;;2.95;1.50;;;;;;;;;;5084748;28;20254;-59
2021/03/21 02:22:28;;;;;;;;;;;;;;;;;;5070307;28;20048;-58
2021/03/21 02:25:12;;;;;;;4.43;1.40;;;;;;;;;;5061504;28;19913;-58
2021/03/21 02:27:49;;;;;;;4.45;1.77;;;;;;;;;;5057946;28;20048;-60
2021/03/21 02:30:18;;;;;;;5.72;2.15;;;;;;;;;;5083579;28;20063;-58
2021/03/21 02:32:50;;;;;;;8.43;2.70;;;;;;;;;;5095931;28;20044;-59
2021/03/21 02:35:19;;;;;;;9.23;2.00;;;;;;;;;;5100898;28;20040;-58
2021/03/21 02:37:47;;;;;;;5.95;2.60;;;;;;;;;;5074254;28;20043;-58
2021/03/21 02:40:18;;;;;;;4.60;2.20;;;;;;;;;;5065732;28;20040;-58
2021/03/21 02:42:47;;;;;;;5.70;2.40;;;;;;;;;;5066955;28;20052;-59
2021/03/21 02:45:15;;;;;;;6.57;2.60;;;;;;;;;;5083127;28;20090;-60
2021/03/21 02:47:46;;;;;;;6.57;2.63;;;;;;;;;;5075503;28;20052;-57
2021/03/21 02:50:15;;;;;;;5.43;2.50;;;;;;;;;;5055281;28;20048;-59
2021/03/21 02:52:43;;;;;;;7.60;2.95;;;;;;;;;;5044630;28;20056;-60
2021/03/21 02:55:13;;;;;;;6.82;2.78;;;;;;;;;;5072328;28;20032;-59
2021/03/21 02:57:44;;;;;;;8.07;3.17;;;;;;;;;;5080006;28;20048;-58
2021/03/21 03:03:25;;;;;;;10.68;3.20;;;;;;;;;;5026217;23;20116;-58
2021/03/21 03:05:54;;;;;;;7.47;3.17;;;;;;;;;;5007917;28;20053;-58
2021/03/21 03:08:22;;;;;;;6.68;3.05;;;;;;;;;;5003869;28;20123;-59
2021/03/21 03:10:49;;;;;;;7.32;3.67;;;;;;;;;;5007500;28;20044;-61
2021/03/21 03:13:18;;;;;;;9.07;3.42;;;;;;;;;;4997180;28;20030;-62
2021/03/21 03:15:45;;;;;;;7.22;3.13;;;;;;;;;;5001179;28;20127;-60
2021/03/21 03:18:17;;;;;;;10.95;3.75;;;;;;;;;;5004354;28;20046;-61
2021/03/21 03:20:48;;;;;;;8.07;3.33;;;;;;;;;;4985705;28;20058;-60
2021/03/21 03:23:21;;;;;;;8.07;3.33;;;;;;;;;;4989706;28;20120;-61
2021/03/21 03:25:52;;;;;;;7.63;3.20;;;;;;;;;;4989779;28;20034;-59
2021/03/21 03:28:23;;;;;;;8.45;3.47;;;;;;;;;;5026785;28;20042;-59
2021/03/21 03:30:51;;;;;;;6.80;3.38;;;;;;;;;;5004957;28;20042;-59
2021/03/21 03:33:18;;;;;;;8.88;3.47;;;;;;;;;;5022445;28;20034;-59
2021/03/21 03:36:04;;;;;;;7.20;3.47;;;;;;;;;;5018570;28;20034;-57
2021/03/21 03:38:30;;;;;;;7.25;3.08;;;;;;;;;;4989793;28;20048;-58
2021/03/21 03:40:59;;;;;;;8.07;3.65;;;;;;;;;;5027039;28;20037;-58
2021/03/21 03:43:30;;;;;;;9.88;4.32;;;;;;;;;;4993464;28;20053;-59
2021/03/21 03:46:01;;;;;;;10.23;4.38;;;;;;;;;;5005081;28;20435;-59
2021/03/21 03:48:35;;;;;;;10.45;4.38;;;;;;;;;;4998644;28;20057;-59
2021/03/21 03:51:05;;;;;;;8.30;3.80;;;;;;;;;;5006993;28;20043;-58
2021/03/21 03:53:42;;;;;;;10.10;4.55;;;;;;;;;;4988346;28;20058;-60
2021/03/21 03:56:13;;;;;;;11.13;4.82;;;;;;;;;;5010220;28;20033;-59
2021/03/21 03:58:48;;;;;;;11.35;4.60;;;;;;;;;;5007018;28;20038;-59
2021/03/21 04:01:16;;;;;;;12.60;4.80;;;;;;;;;;5005702;28;20045;-60
2021/03/21 04:03:45;;;;;;;12.40;4.37;;;;;;;;;;5025966;28;20045;-59
2021/03/21 04:06:16;;;;;;;16.08;7.10;;;;;;;;;;5001938;28;20611;-58
2021/03/21 04:08:47;;;;;;;11.07;4.40;;;;;;;;;;5008837;28;20048;-58
2021/03/21 04:11:15;;;;;;;15.77;6.55;;;;;;;;;;5000970;28;20086;-58
2021/03/21 04:13:42;;;;;;;14.63;5.70;;;;;;;;;;5010347;28;20033;-59
2021/03/21 04:16:10;;;;;;;12.10;4.80;;;;;;;;;;5000217;28;20064;-59
2021/03/21 04:18:39;;;;;;;13.23;5.22;;;;;;;;;;4989222;28;20034;-58
2021/03/21 04:21:08;;;;;;;10.15;4.65;;;;;;;;;;4983843;28;20109;-58
2021/03/21 04:23:37;;;;;;;14.20;5.47;;;;;;;;;;5008003;28;20041;-58
2021/03/21 04:26:05;;;;;;;14.73;5.80;;;;;;;;;;5008777;28;20045;-58
2021/03/21 04:28:35;;;;;;;11.10;4.95;;;;;;;;;;4989924;28;20042;-57
2021/03/21 04:31:03;;;;;;;12.50;4.72;;;;;;;;;;4989568;28;20030;-58
2021/03/21 04:33:30;;;;;;;13.70;4.93;;;;;;;;;;4985012;28;20075;-58
2021/03/21 04:36:04;;;;;;;13.13;5.32;;;;;;;;;;4990162;28;20042;-59
2021/03/21 04:38:31;;;;;;;12.77;5.40;;;;;;;;;;5001363;28;20048;-59
2021/03/21 04:40:58;;;;;;;12.45;5.07;;;;;;;;;;5009052;28;20025;-58
2021/03/21 04:43:28;;;;;;;11.77;4.93;;;;;;;;;;4998591;28;20058;-59
2021/03/21 04:45:56;;;;;;;10.40;4.32;;;;;;;;;;4987568;28;20034;-58
2021/03/21 04:48:23;;;;;;;12.32;4.47;;;;;;;;;;5003167;28;20035;-60
2021/03/21 04:50:54;;;;;;;14.98;4.82;;;;;;;;;;4988759;28;20038;-59
2021/03/21 04:53:24;;;;;;;12.13;4.97;;;;;;;;;;5002775;28;20042;-59
2021/03/21 04:55:57;;;;;;;11.43;4.05;;;;;;;;;;4988866;28;20041;-59
2021/03/21 04:58:31;;;;;;;14.73;4.30;;;;;;;;;;4986167;28;20091;-60
2021/03/21 05:01:02;;;;;;;10.57;4.25;;;;;;;;;;4993888;28;20050;-58
2021/03/21 05:03:33;;;;;;;11.00;4.20;;;;;;;;;;4998122;28;20054;-60
2021/03/21 05:06:01;;;;;;;10.95;3.83;;;;;;;;;;4985765;28;20035;-60
2021/03/21 05:08:29;;;;;;;9.93;4.03;;;;;;;;;;4986517;28;20027;-60
2021/03/21 05:10:57;;;;;;;14.73;3.35;;;;;;;;;;5004107;28;20053;-58
2021/03/21 05:13:26;;;;;;;11.67;3.67;;;;;;;;;;4997645;28;20418;-59
2021/03/21 05:16:11;;;;;;;9.10;3.20;;;;;;;;;;4984925;28;20153;-59
2021/03/21 05:18:43;;;;;;;11.57;3.00;;;;;;;;;;4982304;28;20102;-59
2021/03/21 05:21:12;;;;;;;13.10;2.85;;;;;;;;;;4984564;28;20035;-60
2021/03/21 05:23:37;;;;;;;;;;;;;;;;;;4983727;28;20043;-58
2021/03/21 05:26:07;;;;;;;12.50;2.75;;;;;;;;;;5004009;28;19929;-59
2021/03/21 05:28:42;;;;;;;8.25;2.60;;;;;;;;;;5004204;28;20048;-59
2021/03/21 05:31:09;;;;;;;9.13;2.28;;;;;;;;;;4984802;28;20038;-58
2021/03/21 05:33:35;;;;;;;10.20;2.30;;;;;;;;;;4985345;28;20035;-58
2021/03/21 05:36:12;;;;;;;13.88;2.20;;;;;;;;;;4978014;28;20113;-58
2021/03/21 05:38:41;;;;;;;5.82;1.80;;;;;;;;;;4984944;28;20043;-58
2021/03/21 05:41:25;;;;;;;8.65;1.63;;;;;;;;;;4979842;28;20049;-59
2021/03/21 05:44:09;;;;;;;7.25;1.27;;;;;;;;;;4986458;28;20038;-59
2021/03/21 05:46:54;;;;;;;6.93;1.88;;;;;;;;;;4983001;28;20095;-58
2021/03/21 05:49:35;;;;;;;5.70;1.27;;;;;;;;;;4983979;28;20109;-58
2021/03/21 05:52:16;;;;;;;6.68;1.40;;;;;;;;;;4985572;28;20042;-58
2021/03/21 05:54:54;;;;;;;6.70;1.25;;;;;;;;;;4983573;28;20045;-58
2021/03/21 05:57:34;;;;;;;5.68;1.02;;;;;;;;;;4989578;28;20047;-60
2021/03/21 06:00:10;;;;;;;4.68;0.93;;;;;;;;;;4982488;28;20039;-60
2021/03/21 06:02:48;;;;;;;6.40;1.08;;;;;;;;;;4991565;28;20046;-60
2021/03/21 06:05:35;;;;;;;4.13;0.60;;;;;;;;;;4983765;28;20116;-60
2021/03/21 06:08:19;;;;;;;5.18;1.05;;;;;;;;;;4988227;28;20127;-58
2021/03/21 06:11:03;;;;;;;4.25;0.90;;;;;;;;;;4983489;28;20042;-60
2021/03/21 06:13:40;;;;;;;9.73;1.20;;;;;;;;;;4987598;28;20098;-60
2021/03/21 06:16:38;;;;;;;7.07;0.90;;;;;;;;;;4988718;28;20098;-60
2021/03/21 06:19:11;;;;;;;9.50;1.27;;;;;;;;;;5005730;28;20037;-60
2021/03/21 06:21:48;;;;;;;7.20;0.90;;;;;;;;;;4994265;28;20062;-61
2021/03/21 06:24:29;;;;;;;5.28;0.88;;;;;;;;;;4987952;28;20035;-59
2021/03/21 06:27:16;;;;;;;11.82;1.50;;;;;;;;;;4981531;28;20038;-58
2021/03/21 06:30:10;;;;;;;5.10;0.50;;;;;;;;;;4987912;28;20034;-60
2021/03/21 06:32:45;;;;;;;4.63;0.88;;;;;;;;;;4983476;28;20034;-58
2021/03/21 06:35:32;;;;;;;4.03;1.08;;;;;;;;;;4990584;28;20042;-57
2021/03/21 06:38:09;;;;;;;3.78;0.70;;;;;;;;;;4987667;28;20046;-58
2021/03/21 06:40:43;;;;;;;5.93;0.77;;;;;;;;;;5007341;28;20034;-59
2021/03/21 06:43:27;;;;;;;1.63;0.63;;;;;;;;;;4987328;28;20112;-60
2021/03/21 06:46:16;;;;;;;8.80;0.95;;;;;;;;;;5010621;28;20034;-59
2021/03/21 06:49:01;;;;;;;2.85;0.63;;;;;;;;;;4987199;28;20034;-59
2021/03/21 06:51:51;;;;;;;8.00;1.33;;;;;;;;;;4989292;28;20022;-60
2021/03/21 06:54:25;;;;;;;6.25;0.90;;;;;;;;;;4969262;28;20042;-60
2021/03/21 06:57:02;;;;;;;7.70;0.98;;;;;;;;;;4989676;28;20026;-60
2021/03/21 06:59:47;;;;;;;2.45;0.95;;;;;;;;;;4989679;28;20044;-59
2021/03/21 07:02:27;;;;;;;7.72;0.98;;;;;;;;;;4981809;28;20046;-59
2021/03/21 07:05:13;;;;;;;9.02;1.00;;;;;;;;;;4967199;28;20027;-59
2021/03/21 07:07:59;;;;;;;5.32;0.80;;;;;;;;;;4966191;28;20035;-59
2021/03/21 07:10:44;;;;;;;7.00;0.80;;;;;;;;;;4964881;28;20529;-59
2021/03/21 07:13:28;;;;;;;7.30;0.90;;;;;;;;;;4963453;28;20030;-58
2021/03/21 07:16:13;;;;;;;5.78;0.73;;;;;;;;;;4968018;28;20047;-58
2021/03/21 07:18:56;;;;;;;5.60;1.00;;;;;;;;;;4968804;28;20038;-58
2021/03/21 07:21:52;;;;;;;6.03;0.82;;;;;;;;;;4986814;28;20050;-58
2021/03/21 07:24:38;;;;;;;9.13;0.82;;;;;;;;;;4988356;28;20042;-57
2021/03/21 07:27:19;;;;;;;9.35;1.27;;;;;;;;;;4989048;28;20034;-59
2021/03/21 07:29:48;;;;;;;6.85;0.90;;;;;;;;;;4977076;28;20046;-61
2021/03/21 07:32:34;;;;;;;9.60;1.25;;;;;;;;;;4965755;28;20031;-59
2021/03/21 07:35:21;;;;;;;12.60;1.25;;;;;;;;;;4960275;28;20047;-60
2021/03/21 07:37:51;;;;;;;10.27;1.00;;;;;;;;;;4965883;28;20027;-59
2021/03/21 07:40:27;;;;;;;6.57;0.80;;;;;;;;;;4964507;28;20046;-59
2021/03/21 07:43:08;;;;;;;7.70;1.00;;;;;;;;;;4965007;28;20047;-60
2021/03/21 07:46:01;;;;;;;10.15;1.13;;;;;;;;;;4955108;28;20043;-59
2021/03/21 07:48:33;;;;;;;13.60;1.45;;;;;;;;;;4985946;28;20026;-59
2021/03/21 07:51:07;;;;;;;7.20;0.82;;;;;;;;;;4966052;28;20053;-58
2021/03/21 07:53:36;;;;;;;6.15;1.10;;;;;;;;;;4968177;28;20047;-59
2021/03/21 07:56:09;;;;;;;10.32;1.60;;;;;;;;;;4963220;28;20039;-60
2021/03/21 07:58:38;;;;;;;8.93;0.65;;;;;;;;;;4966416;28;20035;-58
2021/03/21 08:01:04;;;;;;;8.98;1.20;;;;;;;;;;4961130;28;20042;-59
2021/03/21 08:03:44;;;;;;;4.00;0.95;;;;;;;;;;4981561;28;20039;-58
2021/03/21 08:06:27;;;;;;;20.77;1.73;;;;;;;;;;4982170;28;20035;-58
2021/03/21 08:08:56;;;;;;;11.32;1.48;;;;;;;;;;4985843;28;20041;-59
2021/03/21 08:11:24;;;;;;;13.02;1.30;;;;;;;;;;4993825;28;20054;-59
2021/03/21 08:13:54;;;;;;;5.03;0.88;;;;;;;;;;4999047;28;20110;-62
2021/03/21 08:16:27;;;;;;;5.22;0.80;;;;;;;;;;4999619;28;20038;-62
2021/03/21 08:18:54;;;;;;;9.45;0.95;;;;;;;;;;5001944;28;20053;-63
2021/03/21 08:21:27;;;;;;;7.47;0.95;;;;;;;;;;4996853;28;20054;-60
2021/03/21 08:23:56;;;;;;;12.57;1.48;;;;;;;;;;4996321;28;20089;-59
2021/03/21 08:26:27;;;;;;;12.32;1.85;;;;;;;;;;4994007;28;20062;-62
2021/03/21 08:28:57;;;;;;;11.10;1.20;;;;;;;;;;4996893;28;20157;-61
2021/03/21 08:31:27;;;;;;;10.45;1.42;;;;;;;;;;4993556;28;20042;-60
2021/03/21 08:33:53;;;;;;;15.35;1.80;;;;;;;;;;5002753;28;20049;-60
2021/03/21 08:36:23;;;;;;;18.45;2.17;;;;;;;;;;5000663;28;20064;-60
2021/03/21 08:38:57;;;;;;;12.32;1.60;;;;;;;;;;5000917;28;20185;-60
2021/03/21 08:41:24;;;;;;;10.55;1.50;;;;;;;;;;4995323;28;20042;-60
2021/03/21 08:43:56;;;;;;;7.60;1.52;;;;;;;;;;5001129;28;20045;-58
2021/03/21 08:46:24;;;;;;;12.43;1.27;;;;;;;;;;5013831;28;20046;-60
2021/03/21 08:49:00;;;;;;;18.38;2.08;;;;;;;;;;5001395;28;20065;-60
2021/03/21 08:51:31;;;;;;;9.73;1.38;;;;;;;;;;5020920;28;20038;-60
2021/03/21 08:54:02;;;;;;;16.85;1.92;;;;;;;;;;5002539;28;20034;-61
2021/03/21 08:56:31;;;;;;;16.13;1.85;;;;;;;;;;4998547;28;20068;-61
2021/03/21 08:59:27;;;;;;;17.00;1.77;;;;;;;;;;4994517;28;20038;-62
2021/03/21 09:01:57;;;;;;;10.63;1.23;;;;;;;;;;4894977;29;20050;-59
2021/03/21 09:04:24;;;;;;;13.45;1.73;;;;;;;;;;4982283;28;20635;-60
2021/03/21 09:06:53;;;;;;;16.80;2.15;;;;;;;;;;4992532;28;20116;-62
2021/03/21 09:09:21;;;;;;;13.95;1.92;;;;;;;;;;5000459;28;20045;-59
2021/03/21 09:11:48;;;;;;;21.17;1.92;;;;;;;;;;5002658;28;20042;-62
2021/03/21 09:14:19;;;;;;;23.48;2.90;;;;;;;;;;4985030;28;20087;-62
2021/03/21 09:17:01;;;;;;;19.42;2.38;;;;;;;;;;4986432;28;20043;-61
2021/03/21 09:19:28;;;;;;;19.02;2.10;;;;;;;;;;4981294;28;20049;-62
2021/03/21 09:21:56;;;;;;;15.18;1.55;;;;;;;;;;4984444;28;20050;-61
2021/03/21 09:24:23;;;;;;;16.00;1.95;;;;;;;;;;4994800;28;20038;-60
2021/03/21 09:26:52;;;;;;;12.45;1.60;;;;;;;;;;5004677;28;20048;-59
2021/03/21 09:29:24;;;;;;;14.93;2.00;;;;;;;;;;4989771;28;20046;-62
2021/03/21 09:31:51;;;;;;;20.23;1.77;;;;;;;;;;4985083;28;20054;-61
2021/03/21 09:34:19;;;;;;;17.67;2.28;;;;;;;;;;4980290;28;20045;-60
2021/03/21 09:36:59;;;;;;;15.13;1.55;;;;;;;;;;4985033;28;20059;-60
2021/03/21 09:39:27;;;;;;;17.50;1.88;;;;;;;;;;4988316;28;20034;-60
2021/03/21 09:41:54;;;;;;;17.05;2.38;;;;;;;;;;5004109;28;20081;-62
2021/03/21 09:44:25;;;;;;;11.18;1.67;;;;;;;;;;4993428;28;20054;-61
2021/03/21 09:47:11;;;;;;;8.25;1.50;;;;;;;;;;4997480;28;20050;-61
2021/03/21 09:49:43;;;;;;;10.50;1.63;;;;;;;;;;4998881;28;20038;-62
2021/03/21 09:52:12;;;;;;;18.00;1.67;;;;;;;;;;5003726;28;20108;-61
2021/03/21 09:54:44;;;;;;;25.00;1.95;;;;;;;;;;4992394;28;20067;-60
2021/03/21 09:57:29;;;;;;;17.55;2.15;;;;;;;;;;4983873;28;20042;-60
2021/03/21 09:59:57;;;;;;;11.13;1.60;;;;;;;;;;4979796;28;20034;-60
2021/03/21 10:02:27;;;;;;;12.45;1.88;;;;;;;;;;4981253;28;20023;-59
2021/03/21 10:05:05;;;;;;;23.10;2.20;;;;;;;;;;4961509;28;20078;-60
2021/03/21 10:07:38;;;;;;;9.20;1.55;;;;;;;;;;4968003;28;20098;-61
2021/03/21 10:10:07;;;;;;;14.85;2.22;;;;;;;;;;4963856;28;20031;-60
2021/03/21 10:12:33;;;;;;;;;;;;;;;;;;4968967;28;20035;-59
2021/03/21 10:15:01;;;;;;;8.80;1.55;;;;;;;;;;4963851;28;19922;-60
2021/03/21 10:17:40;;;;;;;13.05;1.73;;;;;;;;;;4969191;28;20046;-60
2021/03/21 10:20:07;;;;;;;17.52;2.00;;;;;;;;;;4970069;28;20038;-59
2021/03/21 10:22:52;;;;;;;8.80;0.93;;;;;;;;;;4970256;28;20126;-60
2021/03/21 10:25:38;;;;;;;23.00;2.17;;;;;;;;;;4963467;28;20073;-60
2021/03/21 10:28:18;;;;;;;10.50;1.90;;;;;;;;;;4983906;28;20120;-61
2021/03/21 10:30:59;;;;;;;11.10;1.63;;;;;;;;;;4964142;28;20135;-60
2021/03/21 10:33:31;;;;;;;13.65;1.35;;;;;;;;;;4959696;28;20031;-61
2021/03/21 10:36:03;;;;;;;15.25;1.90;;;;;;;;;;4966674;28;20073;-61
2021/03/21 10:38:43;;;;;;;16.85;2.05;;;;;;;;;;4987016;28;20117;-62
2021/03/21 10:41:09;;;;;;;15.27;2.28;;;;;;;;;;4982423;28;20061;-61
2021/03/21 10:43:56;;;;;;;21.48;2.13;;;;;;;;;;4967309;28;20051;-62
2021/03/21 10:46:43;;;;;;;16.58;1.95;;;;;;;;;;4964738;28;20053;-60
2021/03/21 10:49:10;;;;;;;20.27;1.70;;;;;;;;;;4967311;28;20046;-59
2021/03/21 10:51:51;;;;;;;12.43;1.48;;;;;;;;;;4965846;28;20039;-62
2021/03/21 10:54:24;;;;;;;12.57;2.17;;;;;;;;;;4966528;28;20043;-60
2021/03/21 10:57:09;;;;;;;19.08;1.88;;;;;;;;;;4965093;28;20046;-61
2021/03/21 10:59:35;;;;;;;17.27;2.00;;;;;;;;;;4967453;28;20035;-62
2021/03/21 11:02:20;;;;;;;30.65;2.83;;;;;;;;;;4967336;28;20113;-62
2021/03/21 11:04:56;;;;;;;7.97;0.98;;;;;;;;;;4985207;28;20050;-62
2021/03/21 11:07:22;;;;;;;19.10;1.83;;;;;;;;;;4984209;28;20045;-60
2021/03/21 11:09:53;;;;;;;17.23;2.70;;;;;;;;;;4985707;28;20030;-61
2021/03/21 11:12:27;;;;;;;8.60;1.45;;;;;;;;;;4983985;28;20035;-60
2021/03/21 11:14:53;;;;;;;11.10;1.77;;;;;;;;;;5006694;28;20038;-61
2021/03/21 11:17:21;;;;;;;15.48;1.98;;;;;;;;;;5000132;28;20049;-60
2021/03/21 11:19:49;;;;;;;17.00;2.20;;;;;;;;;;4986794;28;20035;-60
2021/03/21 11:22:23;;;;;;;18.17;2.43;;;;;;;;;;4986890;28;20038;-61
2021/03/21 11:24:49;;;;;;;16.35;1.67;;;;;;;;;;4985462;28;20126;-61
2021/03/21 11:27:24;;;;;;;13.45;1.85;;;;;;;;;;4987335;28;20030;-61
2021/03/21 11:29:50;;;;;;;15.30;1.83;;;;;;;;;;5000998;28;20061;-60
2021/03/21 11:32:21;;;;;;;14.68;1.80;;;;;;;;;;5006414;28;20042;-61
2021/03/21 11:34:58;;;;;;;9.77;1.13;;;;;;;;;;4985529;28;20039;-62
2021/03/21 11:37:28;;;;;;;6.07;0.82;;;;;;;;;;4986395;28;20054;-60
2021/03/21 11:39:55;;;;;;;11.00;1.73;;;;;;;;;;4996342;28;20038;-60
2021/03/21 11:42:23;;;;;;;12.25;1.85;;;;;;;;;;5005963;28;20066;-60
2021/03/21 11:44:52;;;;;;;24.05;1.85;;;;;;;;;;4984460;28;20038;-60
2021/03/21 11:47:26;;;;;;;12.80;2.28;;;;;;;;;;4987669;28;20053;-59
2021/03/21 11:49:52;;;;;;;19.63;2.33;;;;;;;;;;4990470;28;20035;-60
2021/03/21 11:52:19;;;;;;;19.02;2.42;;;;;;;;;;4988369;28;20031;-62
2021/03/21 11:54:46;;;;;;;16.75;1.88;;;;;;;;;;4983187;28;20165;-59
2021/03/21 11:57:24;;;;;;;24.58;3.25;;;;;;;;;;5000497;28;20038;-60
2021/03/21 11:59:53;;;;;;;20.58;2.70;;;;;;;;;;4994808;28;20045;-63
2021/03/21 12:02:33;;;;;;;25.55;2.28;;;;;;;;;;4981001;28;20035;-60
2021/03/21 12:05:13;;;;;;;13.90;2.05;;;;;;;;;;4965761;28;20031;-62
2021/03/21 12:07:40;;;;;;;14.52;2.03;;;;;;;;;;4963432;28;20042;-61
2021/03/21 12:10:07;;;;;;;14.25;2.83;;;;;;;;;;4962672;28;20043;-60
2021/03/21 12:12:37;;;;;;;16.80;2.10;;;;;;;;;;4965433;28;20039;-63
2021/03/21 12:15:04;;;;;;;14.70;1.63;;;;;;;;;;4962845;28;20042;-60
2021/03/21 12:17:38;;;;;;;25.02;2.92;;;;;;;;;;4966017;28;20067;-62
2021/03/21 12:20:23;;;;;;;13.13;1.85;;;;;;;;;;4967216;28;20030;-60
2021/03/21 12:22:50;;;;;;;18.17;2.50;;;;;;;;;;4984499;28;20031;-60
2021/03/21 12:25:22;;;;;;;27.48;3.08;;;;;;;;;;4995339;28;20053;-62
2021/03/21 12:27:49;;;;;;;23.05;2.25;;;;;;;;;;4965731;28;20042;-60
2021/03/21 12:30:18;;;;;;;27.55;4.38;;;;;;;;;;4963028;28;20050;-61
2021/03/21 12:32:45;;;;;;;27.85;3.03;;;;;;;;;;4965995;28;20035;-60
2021/03/21 12:35:30;;;;;;;27.67;3.10;;;;;;;;;;4963212;28;20055;-61
2021/03/21 12:38:00;;;;;;;24.77;2.72;;;;;;;;;;4961229;28;20093;-60
2021/03/21 12:40:31;;;;;;;28.17;3.50;;;;;;;;;;4982353;28;20045;-60
2021/03/21 12:42:57;;;;;;;18.20;3.58;;;;;;;;;;4967407;28;20050;-60
2021/03/21 12:45:25;;;;;;;17.60;3.45;;;;;;;;;;4984827;28;20047;-62
2021/03/21 12:48:00;;;;;;;24.38;3.58;;;;;;;;;;4980823;28;20043;-62
2021/03/21 12:50:39;;;;;;;20.23;2.70;;;;;;;;;;4984443;28;20039;-62
2021/03/21 12:53:05;;;;;;;;;;;;;;;;;;4963319;28;20031;-61
2021/03/21 12:55:32;;;;;;;23.15;2.63;;;;;;;;;;4964273;28;19919;-61
2021/03/21 12:57:58;;;;;;;15.43;2.78;;;;;;;;;;4991733;28;20038;-59
2021/03/21 13:00:25;;;;;;;22.63;2.63;;;;;;;;;;4984317;28;20041;-59
2021/03/21 13:02:53;;;;;;;24.85;2.80;;;;;;;;;;4978592;28;20063;-60
2021/03/21 13:05:23;;;;;;;15.45;2.05;;;;;;;;;;4985675;28;20130;-59
2021/03/21 13:07:49;;;;;;;20.95;2.50;;;;;;;;;;4994207;28;20074;-60
2021/03/21 13:10:15;;;;;;;22.17;3.95;;;;;;;;;;5004374;28;20053;-60
2021/03/21 13:12:43;;;;;;;21.45;2.28;;;;;;;;;;4985270;28;20041;-60
2021/03/21 13:15:11;;;;;;;18.42;2.45;;;;;;;;;;4986164;28;20051;-61
2021/03/21 13:17:38;;;;;;;19.73;2.42;;;;;;;;;;4988143;28;20033;-61
2021/03/21 13:20:04;;;;;;;19.63;2.50;;;;;;;;;;4987891;28;20031;-59
2021/03/21 13:22:30;;;;;;;30.13;2.30;;;;;;;;;;4980858;28;20046;-60
2021/03/21 13:24:56;;;;;;;18.40;2.70;;;;;;;;;;4985113;28;20089;-61
2021/03/21 13:27:23;;;;;;;26.38;2.38;;;;;;;;;;4981224;28;20039;-60
2021/03/21 13:29:50;;;;;;;23.10;3.05;;;;;;;;;;4984114;28;20039;-61
2021/03/21 13:32:16;;;;;;;15.32;2.33;;;;;;;;;;4983455;28;20035;-59
2021/03/21 13:34:42;;;;;;;18.83;2.40;;;;;;;;;;4979754;28;20041;-59
2021/03/21 13:37:09;;;;;;;23.20;2.85;;;;;;;;;;4984229;28;20023;-61
2021/03/21 13:39:36;;;;;;;20.65;2.28;;;;;;;;;;4982062;28;20039;-61
2021/03/21 13:42:02;;;;;;;11.77;1.92;;;;;;;;;;4985665;28;20034;-61
2021/03/21 13:44:29;;;;;;;18.90;2.63;;;;;;;;;;4983795;28;20034;-62
2021/03/21 13:46:57;;;;;;;20.00;2.90;;;;;;;;;;4987885;28;20034;-61
2021/03/21 13:49:23;;;;;;;19.45;2.72;;;;;;;;;;4984765;28;20042;-62
2021/03/21 13:51:49;;;;;;;17.02;2.25;;;;;;;;;;4988321;28;20051;-61
2021/03/21 13:54:17;;;;;;;27.40;2.42;;;;;;;;;;4984151;28;20045;-60
2021/03/21 13:56:47;;;;;;;14.30;1.80;;;;;;;;;;4987082;28;20084;-62
2021/03/21 13:59:13;;;;;;;20.67;1.90;;;;;;;;;;4988434;28;20358;-61
2021/03/21 14:01:39;;;;;;;18.98;2.08;;;;;;;;;;4988813;28;20050;-59
2021/03/21 14:04:06;;;;;;;23.17;3.08;;;;;;;;;;4979750;28;20087;-60
2021/03/21 14:06:33;;;;;;;16.75;2.00;;;;;;;;;;4968404;28;20071;-61
2021/03/21 14:08:59;;;;;;;16.17;1.48;;;;;;;;;;4965437;28;20150;-59
2021/03/21 14:11:25;;;;;;;21.55;2.65;;;;;;;;;;4987144;28;20034;-60
2021/03/21 14:13:52;;;;;;;14.57;1.75;;;;;;;;;;4987851;28;20046;-61
2021/03/21 14:16:25;;;;;;;25.58;2.25;;;;;;;;;;4967651;28;20043;-59
2021/03/21 14:18:51;;;;;;;16.52;2.08;;;;;;;;;;4989309;28;20121;-59
2021/03/21 14:21:18;;;;;;;17.40;1.80;;;;;;;;;;4966584;28;20054;-61
2021/03/21 14:23:44;;;;;;;11.50;1.90;;;;;;;;;;4968080;28;20035;-60
2021/03/21 14:26:13;;;;;;;19.60;1.92;;;;;;;;;;4964963;28;20035;-61
2021/03/21 14:28:39;;;;;;;15.00;1.83;;;;;;;;;;4967671;28;20039;-61
2021/03/21 14:31:06;;;;;;;20.70;2.25;;;;;;;;;;4975404;28;20087;-61
2021/03/21 14:33:34;;;;;;;21.73;2.90;;;;;;;;;;4986442;28;20023;-62
2021/03/21 14:36:00;;;;;;;17.95;2.83;;;;;;;;;;4977395;28;20065;-62
2021/03/21 14:38:29;;;;;;;20.77;1.92;;;;;;;;;;4987192;28;20108;-59
2021/03/21 14:40:55;;;;;;;7.07;1.10;;;;;;;;;;4980915;28;20051;-60
2021/03/21 14:43:22;;;;;;;13.88;2.05;;;;;;;;;;4979938;28;20039;-60
2021/03/21 14:46:21;;;;;;;22.23;1.92;;;;;;;;;;4964704;28;20035;-60
2021/03/21 14:48:47;;;;;;;10.20;1.65;;;;;;;;;;4898624;29;20085;-60
2021/03/21 14:51:13;;;;;;;19.25;2.10;;;;;;;;;;4895724;29;20047;-60
2021/03/21 14:53:40;;;;;;;25.77;3.00;;;;;;;;;;4944090;28;20102;-60
2021/03/21 14:56:07;;;;;;;14.00;1.90;;;;;;;;;;4963604;28;20055;-59
2021/03/21 14:58:33;;;;;;;15.65;2.10;;;;;;;;;;4970274;28;20061;-60
2021/03/21 15:01:01;;;;;;;19.02;2.10;;;;;;;;;;4983373;28;20050;-60
2021/03/21 15:03:28;;;;;;;20.00;2.05;;;;;;;;;;4981516;28;20046;-62
2021/03/21 15:06:01;;;;;;;20.85;2.40;;;;;;;;;;4985974;28;20086;-61
2021/03/21 15:08:28;;;;;;;14.88;2.40;;;;;;;;;;4985916;28;20038;-60